sensor_id;sensor_type;location;lat;lon;timestamp;temperature;humidity
65707;SHT31;52423;43.512;5.220;2024-03-02T00:01:19;8.62;73.46
65707;SHT31;52423;43.512;5.220;2024-03-02T00:03:44;8.59;73.70
65707;SHT31;52423;43.512;5.220;2024-03-02T00:06:10;8.59;73.49
65707;SHT31;52423;43.512;5.220;2024-03-02T00:08:35;8.53;72.45
65707;SHT31;52423;43.512;5.220;2024-03-02T00:11:01;8.53;72.91
65707;SHT31;52423;43.512;5.220;2024-03-02T00:13:28;8.58;73.07
65707;SHT31;52423;43.512;5.220;2024-03-02T00:15:55;8.65;73.71
65707;SHT31;52423;43.512;5.220;2024-03-02T00:18:31;8.56;74.58
65707;SHT31;52423;43.512;5.220;2024-03-02T00:20:58;8.55;74.16
65707;SHT31;52423;43.512;5.220;2024-03-02T00:23:24;8.51;74.59
65707;SHT31;52423;43.512;5.220;2024-03-02T00:25:55;8.52;73.81
65707;SHT31;52423;43.512;5.220;2024-03-02T00:28:27;8.59;73.43
65707;SHT31;52423;43.512;5.220;2024-03-02T00:30:58;8.61;73.77
65707;SHT31;52423;43.512;5.220;2024-03-02T00:33:27;8.53;73.57
65707;SHT31;52423;43.512;5.220;2024-03-02T00:35:55;8.46;73.54
65707;SHT31;52423;43.512;5.220;2024-03-02T00:38:21;8.46;73.27
65707;SHT31;52423;43.512;5.220;2024-03-02T00:40:47;8.44;73.10
65707;SHT31;52423;43.512;5.220;2024-03-02T00:46:19;8.28;74.03
65707;SHT31;52423;43.512;5.220;2024-03-02T00:48:51;8.21;73.67
65707;SHT31;52423;43.512;5.220;2024-03-02T00:51:18;8.12;73.91
65707;SHT31;52423;43.512;5.220;2024-03-02T00:53:43;8.10;74.53
65707;SHT31;52423;43.512;5.220;2024-03-02T00:56:10;8.10;74.18
65707;SHT31;52423;43.512;5.220;2024-03-02T00:58:37;8.02;75.01
65707;SHT31;52423;43.512;5.220;2024-03-02T01:01:02;8.02;75.64
65707;SHT31;52423;43.512;5.220;2024-03-02T01:03:27;8.01;75.48
65707;SHT31;52423;43.512;5.220;2024-03-02T01:05:53;8.12;75.55
65707;SHT31;52423;43.512;5.220;2024-03-02T01:08:18;8.17;75.19
65707;SHT31;52423;43.512;5.220;2024-03-02T01:10:44;8.15;74.54
65707;SHT31;52423;43.512;5.220;2024-03-02T01:13:09;8.21;74.64
65707;SHT31;52423;43.512;5.220;2024-03-02T01:15:35;8.21;74.09
65707;SHT31;52423;43.512;5.220;2024-03-02T01:18:00;8.24;74.43
65707;SHT31;52423;43.512;5.220;2024-03-02T01:20:26;8.20;74.29
65707;SHT31;52423;43.512;5.220;2024-03-02T01:22:51;8.08;76.03
65707;SHT31;52423;43.512;5.220;2024-03-02T01:25:17;8.11;74.97
65707;SHT31;52423;43.512;5.220;2024-03-02T01:27:42;8.12;74.37
65707;SHT31;52423;43.512;5.220;2024-03-02T01:30:08;8.14;74.53
65707;SHT31;52423;43.512;5.220;2024-03-02T01:32:34;8.07;76.00
65707;SHT31;52423;43.512;5.220;2024-03-02T01:34:59;8.17;74.82
65707;SHT31;52423;43.512;5.220;2024-03-02T01:37:24;8.20;74.64
65707;SHT31;52423;43.512;5.220;2024-03-02T01:39:50;8.15;74.53
65707;SHT31;52423;43.512;5.220;2024-03-02T01:42:15;8.15;74.60
65707;SHT31;52423;43.512;5.220;2024-03-02T01:44:41;8.10;74.41
65707;SHT31;52423;43.512;5.220;2024-03-02T01:47:06;8.17;74.20
65707;SHT31;52423;43.512;5.220;2024-03-02T01:49:32;8.18;74.27
65707;SHT31;52423;43.512;5.220;2024-03-02T01:51:59;8.21;74.02
65707;SHT31;52423;43.512;5.220;2024-03-02T01:54:24;8.14;74.68
65707;SHT31;52423;43.512;5.220;2024-03-02T01:56:50;8.14;75.12
65707;SHT31;52423;43.512;5.220;2024-03-02T01:59:15;8.15;74.37
65707;SHT31;52423;43.512;5.220;2024-03-02T02:01:41;8.17;74.25
65707;SHT31;52423;43.512;5.220;2024-03-02T02:04:06;8.14;74.45
65707;SHT31;52423;43.512;5.220;2024-03-02T02:06:32;8.17;74.13
65707;SHT31;52423;43.512;5.220;2024-03-02T02:08:58;8.20;74.33
65707;SHT31;52423;43.512;5.220;2024-03-02T02:11:24;8.22;73.85
65707;SHT31;52423;43.512;5.220;2024-03-02T02:13:50;8.27;73.53
65707;SHT31;52423;43.512;5.220;2024-03-02T02:16:15;8.22;73.73
65707;SHT31;52423;43.512;5.220;2024-03-02T02:18:41;8.30;73.38
65707;SHT31;52423;43.512;5.220;2024-03-02T02:21:06;8.25;74.20
65707;SHT31;52423;43.512;5.220;2024-03-02T02:23:31;8.25;74.23
65707;SHT31;52423;43.512;5.220;2024-03-02T02:25:57;8.27;73.71
65707;SHT31;52423;43.512;5.220;2024-03-02T02:28:22;8.28;73.81
65707;SHT31;52423;43.512;5.220;2024-03-02T02:30:48;8.21;74.19
65707;SHT31;52423;43.512;5.220;2024-03-02T02:33:13;8.20;74.35
65707;SHT31;52423;43.512;5.220;2024-03-02T02:35:38;8.14;74.53
65707;SHT31;52423;43.512;5.220;2024-03-02T02:38:04;8.15;74.16
65707;SHT31;52423;43.512;5.220;2024-03-02T02:40:30;8.11;74.37
65707;SHT31;52423;43.512;5.220;2024-03-02T02:42:59;8.05;74.49
65707;SHT31;52423;43.512;5.220;2024-03-02T02:45:24;8.11;73.93
65707;SHT31;52423;43.512;5.220;2024-03-02T02:47:50;8.15;73.89
65707;SHT31;52423;43.512;5.220;2024-03-02T02:50:15;8.14;73.67
65707;SHT31;52423;43.512;5.220;2024-03-02T02:52:42;8.10;73.99
65707;SHT31;52423;43.512;5.220;2024-03-02T02:55:11;8.07;74.06
65707;SHT31;52423;43.512;5.220;2024-03-02T02:57:39;7.98;74.43
65707;SHT31;52423;43.512;5.220;2024-03-02T03:00:07;7.91;74.79
65707;SHT31;52423;43.512;5.220;2024-03-02T03:02:38;7.84;76.11
65707;SHT31;52423;43.512;5.220;2024-03-02T03:05:05;7.86;75.98
65707;SHT31;52423;43.512;5.220;2024-03-02T03:07:31;7.97;75.36
65707;SHT31;52423;43.512;5.220;2024-03-02T03:09:56;7.97;75.36
65707;SHT31;52423;43.512;5.220;2024-03-02T03:12:22;7.95;75.28
65707;SHT31;52423;43.512;5.220;2024-03-02T03:14:47;7.97;75.18
65707;SHT31;52423;43.512;5.220;2024-03-02T03:17:13;7.97;74.93
65707;SHT31;52423;43.512;5.220;2024-03-02T03:19:38;8.01;75.02
65707;SHT31;52423;43.512;5.220;2024-03-02T03:22:04;7.95;74.78
65707;SHT31;52423;43.512;5.220;2024-03-02T03:24:29;7.91;75.05
65707;SHT31;52423;43.512;5.220;2024-03-02T03:26:55;7.89;75.37
65707;SHT31;52423;43.512;5.220;2024-03-02T03:29:20;7.84;75.41
65707;SHT31;52423;43.512;5.220;2024-03-02T03:31:45;7.81;75.59
65707;SHT31;52423;43.512;5.220;2024-03-02T03:34:11;7.79;76.01
65707;SHT31;52423;43.512;5.220;2024-03-02T03:36:41;7.83;75.69
65707;SHT31;52423;43.512;5.220;2024-03-02T03:39:06;7.87;75.63
65707;SHT31;52423;43.512;5.220;2024-03-02T03:41:31;7.86;75.83
65707;SHT31;52423;43.512;5.220;2024-03-02T03:43:57;7.89;75.54
65707;SHT31;52423;43.512;5.220;2024-03-02T03:46:22;7.86;75.66
65707;SHT31;52423;43.512;5.220;2024-03-02T03:48:47;7.81;75.89
65707;SHT31;52423;43.512;5.220;2024-03-02T03:51:13;7.84;75.61
65707;SHT31;52423;43.512;5.220;2024-03-02T03:53:39;7.86;75.64
65707;SHT31;52423;43.512;5.220;2024-03-02T03:56:04;7.80;76.17
65707;SHT31;52423;43.512;5.220;2024-03-02T03:58:30;7.80;76.00
65707;SHT31;52423;43.512;5.220;2024-03-02T04:00:55;7.80;75.75
65707;SHT31;52423;43.512;5.220;2024-03-02T04:03:21;7.77;75.95
65707;SHT31;52423;43.512;5.220;2024-03-02T04:05:47;7.73;76.57
65707;SHT31;52423;43.512;5.220;2024-03-02T04:08:12;7.77;77.00
65707;SHT31;52423;43.512;5.220;2024-03-02T04:10:38;7.79;77.27
65707;SHT31;52423;43.512;5.220;2024-03-02T04:13:03;7.90;77.11
65707;SHT31;52423;43.512;5.220;2024-03-02T04:15:29;7.81;77.61
65707;SHT31;52423;43.512;5.220;2024-03-02T04:17:54;7.89;77.07
65707;SHT31;52423;43.512;5.220;2024-03-02T04:20:20;7.93;76.77
65707;SHT31;52423;43.512;5.220;2024-03-02T04:22:46;8.01;76.14
65707;SHT31;52423;43.512;5.220;2024-03-02T04:25:11;7.98;76.56
65707;SHT31;52423;43.512;5.220;2024-03-02T04:27:36;7.95;76.18
65707;SHT31;52423;43.512;5.220;2024-03-02T04:30:03;8.05;76.02
65707;SHT31;52423;43.512;5.220;2024-03-02T04:32:30;8.02;75.48
65707;SHT31;52423;43.512;5.220;2024-03-02T04:34:56;8.01;75.86
65707;SHT31;52423;43.512;5.220;2024-03-02T04:37:22;8.01;75.90
65707;SHT31;52423;43.512;5.220;2024-03-02T04:39:47;7.97;76.26
65707;SHT31;52423;43.512;5.220;2024-03-02T04:42:12;7.98;75.87
65707;SHT31;52423;43.512;5.220;2024-03-02T04:44:38;8.07;75.62
65707;SHT31;52423;43.512;5.220;2024-03-02T04:47:04;8.01;75.84
65707;SHT31;52423;43.512;5.220;2024-03-02T04:49:29;8.10;75.58
65707;SHT31;52423;43.512;5.220;2024-03-02T04:51:55;8.04;76.22
65707;SHT31;52423;43.512;5.220;2024-03-02T04:54:22;8.07;75.84
65707;SHT31;52423;43.512;5.220;2024-03-02T04:56:47;8.05;75.41
65707;SHT31;52423;43.512;5.220;2024-03-02T04:59:16;8.04;75.68
65707;SHT31;52423;43.512;5.220;2024-03-02T05:01:42;7.94;76.54
65707;SHT31;52423;43.512;5.220;2024-03-02T05:04:08;7.89;77.15
65707;SHT31;52423;43.512;5.220;2024-03-02T05:06:33;7.89;77.11
65707;SHT31;52423;43.512;5.220;2024-03-02T05:08:59;7.86;77.07
65707;SHT31;52423;43.512;5.220;2024-03-02T05:11:24;7.91;77.33
65707;SHT31;52423;43.512;5.220;2024-03-02T05:14:05;7.89;78.38
65707;SHT31;52423;43.512;5.220;2024-03-02T05:16:37;7.90;78.93
65707;SHT31;52423;43.512;5.220;2024-03-02T05:19:07;7.94;79.44
65707;SHT31;52423;43.512;5.220;2024-03-02T05:21:33;8.02;79.12
65707;SHT31;52423;43.512;5.220;2024-03-02T05:23:59;8.07;78.90
65707;SHT31;52423;43.512;5.220;2024-03-02T05:26:24;8.11;79.47
65707;SHT31;52423;43.512;5.220;2024-03-02T05:28:49;8.11;79.75
65707;SHT31;52423;43.512;5.220;2024-03-02T05:31:15;8.18;79.90
65707;SHT31;52423;43.512;5.220;2024-03-02T05:33:42;8.20;79.89
65707;SHT31;52423;43.512;5.220;2024-03-02T05:36:07;8.25;80.10
65707;SHT31;52423;43.512;5.220;2024-03-02T05:38:36;8.27;80.07
65707;SHT31;52423;43.512;5.220;2024-03-02T05:41:02;8.27;79.91
65707;SHT31;52423;43.512;5.220;2024-03-02T05:43:27;8.30;79.74
65707;SHT31;52423;43.512;5.220;2024-03-02T05:45:53;8.24;79.42
65707;SHT31;52423;43.512;5.220;2024-03-02T05:48:18;8.25;79.86
65707;SHT31;52423;43.512;5.220;2024-03-02T05:50:44;8.21;80.38
65707;SHT31;52423;43.512;5.220;2024-03-02T05:53:09;8.28;80.19
65707;SHT31;52423;43.512;5.220;2024-03-02T05:55:34;8.22;80.03
65707;SHT31;52423;43.512;5.220;2024-03-02T05:58:00;8.18;80.31
65707;SHT31;52423;43.512;5.220;2024-03-02T06:00:47;8.22;79.78
65707;SHT31;52423;43.512;5.220;2024-03-02T06:03:13;8.20;80.04
65707;SHT31;52423;43.512;5.220;2024-03-02T06:05:38;8.17;80.34
65707;SHT31;52423;43.512;5.220;2024-03-02T06:08:04;8.17;80.33
65707;SHT31;52423;43.512;5.220;2024-03-02T06:10:29;8.12;80.51
65707;SHT31;52423;43.512;5.220;2024-03-02T06:12:54;8.05;81.53
65707;SHT31;52423;43.512;5.220;2024-03-02T06:15:20;8.07;81.83
65707;SHT31;52423;43.512;5.220;2024-03-02T06:17:45;8.12;81.85
65707;SHT31;52423;43.512;5.220;2024-03-02T06:20:11;8.18;81.44
65707;SHT31;52423;43.512;5.220;2024-03-02T06:22:36;8.17;81.49
65707;SHT31;52423;43.512;5.220;2024-03-02T06:25:02;8.22;81.17
65707;SHT31;52423;43.512;5.220;2024-03-02T06:27:27;8.24;81.27
65707;SHT31;52423;43.512;5.220;2024-03-02T06:29:53;8.25;81.35
65707;SHT31;52423;43.512;5.220;2024-03-02T06:32:20;8.22;81.35
65707;SHT31;52423;43.512;5.220;2024-03-02T06:34:45;8.22;81.32
65707;SHT31;52423;43.512;5.220;2024-03-02T06:37:11;8.20;81.40
65707;SHT31;52423;43.512;5.220;2024-03-02T06:39:36;8.24;81.34
65707;SHT31;52423;43.512;5.220;2024-03-02T06:42:01;8.31;81.20
65707;SHT31;52423;43.512;5.220;2024-03-02T06:44:27;8.32;81.72
65707;SHT31;52423;43.512;5.220;2024-03-02T06:46:52;8.31;81.75
65707;SHT31;52423;43.512;5.220;2024-03-02T06:49:17;8.37;82.10
65707;SHT31;52423;43.512;5.220;2024-03-02T06:51:43;8.38;82.27
65707;SHT31;52423;43.512;5.220;2024-03-02T06:54:09;8.45;82.32
65707;SHT31;52423;43.512;5.220;2024-03-02T06:56:34;8.55;82.28
65707;SHT31;52423;43.512;5.220;2024-03-02T06:59:00;8.66;82.43
65707;SHT31;52423;43.512;5.220;2024-03-02T07:01:25;8.75;82.35
65707;SHT31;52423;43.512;5.220;2024-03-02T07:03:51;8.84;82.32
65707;SHT31;52423;43.512;5.220;2024-03-02T07:06:17;8.93;82.11
65707;SHT31;52423;43.512;5.220;2024-03-02T07:08:42;9.00;82.13
65707;SHT31;52423;43.512;5.220;2024-03-02T07:11:07;9.11;81.88
65707;SHT31;52423;43.512;5.220;2024-03-02T07:13:33;9.17;81.62
65707;SHT31;52423;43.512;5.220;2024-03-02T07:15:58;9.26;81.28
65707;SHT31;52423;43.512;5.220;2024-03-02T07:18:29;9.37;81.17
65707;SHT31;52423;43.512;5.220;2024-03-02T07:20:56;9.45;81.31
65707;SHT31;52423;43.512;5.220;2024-03-02T07:23:23;9.62;81.73
65707;SHT31;52423;43.512;5.220;2024-03-02T07:25:55;9.78;81.08
65707;SHT31;52423;43.512;5.220;2024-03-02T07:28:22;10.01;80.49
65707;SHT31;52423;43.512;5.220;2024-03-02T07:30:57;10.14;79.67
65707;SHT31;52423;43.512;5.220;2024-03-02T07:33:23;10.26;79.61
65707;SHT31;52423;43.512;5.220;2024-03-02T07:35:49;10.28;79.18
65707;SHT31;52423;43.512;5.220;2024-03-02T07:38:14;10.32;78.66
65707;SHT31;52423;43.512;5.220;2024-03-02T07:40:40;10.33;79.21
65707;SHT31;52423;43.512;5.220;2024-03-02T07:43:05;10.34;78.84
65707;SHT31;52423;43.512;5.220;2024-03-02T07:45:31;10.30;78.61
65707;SHT31;52423;43.512;5.220;2024-03-02T07:47:56;10.37;77.96
65707;SHT31;52423;43.512;5.220;2024-03-02T07:50:22;10.37;77.47
65707;SHT31;52423;43.512;5.220;2024-03-02T07:52:48;10.39;77.35
65707;SHT31;52423;43.512;5.220;2024-03-02T07:55:13;10.37;77.91
65707;SHT31;52423;43.512;5.220;2024-03-02T07:57:38;10.39;78.06
65707;SHT31;52423;43.512;5.220;2024-03-02T08:00:04;10.40;78.13
65707;SHT31;52423;43.512;5.220;2024-03-02T08:02:30;10.56;78.16
65707;SHT31;52423;43.512;5.220;2024-03-02T08:04:55;10.60;78.74
65707;SHT31;52423;43.512;5.220;2024-03-02T08:07:21;10.74;79.07
65707;SHT31;52423;43.512;5.220;2024-03-02T08:09:46;10.85;78.84
65707;SHT31;52423;43.512;5.220;2024-03-02T08:12:11;11.00;79.16
65707;SHT31;52423;43.512;5.220;2024-03-02T08:14:37;11.19;77.98
65707;SHT31;52423;43.512;5.220;2024-03-02T08:17:02;11.43;76.77
65707;SHT31;52423;43.512;5.220;2024-03-02T08:19:28;11.66;74.62
65707;SHT31;52423;43.512;5.220;2024-03-02T08:21:53;11.89;73.88
65707;SHT31;52423;43.512;5.220;2024-03-02T08:24:19;12.10;73.20
65707;SHT31;52423;43.512;5.220;2024-03-02T08:26:44;12.24;72.15
65707;SHT31;52423;43.512;5.220;2024-03-02T08:29:10;12.46;72.09
65707;SHT31;52423;43.512;5.220;2024-03-02T08:31:36;12.69;70.00
65707;SHT31;52423;43.512;5.220;2024-03-02T08:34:02;12.91;70.46
65707;SHT31;52423;43.512;5.220;2024-03-02T08:36:27;13.16;70.88
65707;SHT31;52423;43.512;5.220;2024-03-02T08:38:52;13.34;69.92
65707;SHT31;52423;43.512;5.220;2024-03-02T08:41:18;13.54;68.84
65707;SHT31;52423;43.512;5.220;2024-03-02T08:43:43;13.74;69.37
65707;SHT31;52423;43.512;5.220;2024-03-02T08:46:09;13.92;69.16
65707;SHT31;52423;43.512;5.220;2024-03-02T08:48:35;14.01;69.53
65707;SHT31;52423;43.512;5.220;2024-03-02T08:51:00;14.19;69.73
65707;SHT31;52423;43.512;5.220;2024-03-02T08:53:26;14.36;69.32
65707;SHT31;52423;43.512;5.220;2024-03-02T08:55:51;14.46;69.41
65707;SHT31;52423;43.512;5.220;2024-03-02T08:58:17;14.50;69.22
65707;SHT31;52423;43.512;5.220;2024-03-02T09:00:42;14.57;69.04
65707;SHT31;52423;43.512;5.220;2024-03-02T09:03:07;14.56;68.76
65707;SHT31;52423;43.512;5.220;2024-03-02T09:05:33;14.69;68.21
65707;SHT31;52423;43.512;5.220;2024-03-02T09:07:58;14.73;68.61
65707;SHT31;52423;43.512;5.220;2024-03-02T09:10:24;14.70;67.54
65707;SHT31;52423;43.512;5.220;2024-03-02T09:12:49;14.72;68.54
65707;SHT31;52423;43.512;5.220;2024-03-02T09:15:15;14.81;68.33
65707;SHT31;52423;43.512;5.220;2024-03-02T09:17:40;14.91;68.41
65707;SHT31;52423;43.512;5.220;2024-03-02T09:20:06;14.93;67.44
65707;SHT31;52423;43.512;5.220;2024-03-02T09:22:31;14.93;67.77
65707;SHT31;52423;43.512;5.220;2024-03-02T09:24:57;14.93;68.58
65707;SHT31;52423;43.512;5.220;2024-03-02T09:27:23;15.01;67.73
65707;SHT31;52423;43.512;5.220;2024-03-02T09:29:48;15.04;68.17
65707;SHT31;52423;43.512;5.220;2024-03-02T09:32:14;15.18;67.41
65707;SHT31;52423;43.512;5.220;2024-03-02T09:34:40;15.22;67.11
65707;SHT31;52423;43.512;5.220;2024-03-02T09:37:06;15.24;66.48
65707;SHT31;52423;43.512;5.220;2024-03-02T09:39:31;15.35;66.87
65707;SHT31;52423;43.512;5.220;2024-03-02T09:41:58;15.38;66.78
65707;SHT31;52423;43.512;5.220;2024-03-02T09:44:24;15.35;65.72
65707;SHT31;52423;43.512;5.220;2024-03-02T09:46:51;15.53;65.72
65707;SHT31;52423;43.512;5.220;2024-03-02T09:49:17;15.70;67.14
65707;SHT31;52423;43.512;5.220;2024-03-02T09:51:49;15.78;66.03
65707;SHT31;52423;43.512;5.220;2024-03-02T09:54:16;15.72;65.69
65707;SHT31;52423;43.512;5.220;2024-03-02T09:56:41;15.75;67.50
65707;SHT31;52423;43.512;5.220;2024-03-02T09:59:07;15.82;66.82
65707;SHT31;52423;43.512;5.220;2024-03-02T10:01:32;15.87;65.85
65707;SHT31;52423;43.512;5.220;2024-03-02T10:04:01;15.87;63.52
65707;SHT31;52423;43.512;5.220;2024-03-02T10:06:28;15.85;63.79
65707;SHT31;52423;43.512;5.220;2024-03-02T10:08:54;15.81;63.96
65707;SHT31;52423;43.512;5.220;2024-03-02T10:11:35;15.85;64.29
65707;SHT31;52423;43.512;5.220;2024-03-02T10:14:12;15.89;64.42
65707;SHT31;52423;43.512;5.220;2024-03-02T10:16:41;15.89;64.12
65707;SHT31;52423;43.512;5.220;2024-03-02T10:19:21;15.87;63.52
65707;SHT31;52423;43.512;5.220;2024-03-02T10:21:51;15.99;62.78
65707;SHT31;52423;43.512;5.220;2024-03-02T10:24:18;15.93;62.62
65707;SHT31;52423;43.512;5.220;2024-03-02T10:26:44;15.94;62.93
65707;SHT31;52423;43.512;5.220;2024-03-02T10:29:10;15.85;62.60
65707;SHT31;52423;43.512;5.220;2024-03-02T10:31:37;15.82;63.10
65707;SHT31;52423;43.512;5.220;2024-03-02T10:34:03;15.94;64.01
65707;SHT31;52423;43.512;5.220;2024-03-02T10:36:29;16.00;63.54
65707;SHT31;52423;43.512;5.220;2024-03-02T10:38:56;16.06;62.60
65707;SHT31;52423;43.512;5.220;2024-03-02T10:41:26;16.13;63.33
65707;SHT31;52423;43.512;5.220;2024-03-02T10:43:53;16.04;63.52
65707;SHT31;52423;43.512;5.220;2024-03-02T10:46:33;16.07;63.83
65707;SHT31;52423;43.512;5.220;2024-03-02T10:49:00;16.02;64.35
65707;SHT31;52423;43.512;5.220;2024-03-02T10:51:27;15.94;65.73
65707;SHT31;52423;43.512;5.220;2024-03-02T10:53:54;15.86;64.92
65707;SHT31;52423;43.512;5.220;2024-03-02T10:56:48;15.82;66.30
65707;SHT31;52423;43.512;5.220;2024-03-02T11:02:00;15.66;64.66
65707;SHT31;52423;43.512;5.220;2024-03-02T11:04:27;15.69;66.29
65707;SHT31;52423;43.512;5.220;2024-03-02T11:07:05;16.00;64.78
65707;SHT31;52423;43.512;5.220;2024-03-02T11:09:34;16.06;64.67
65707;SHT31;52423;43.512;5.220;2024-03-02T11:12:12;16.07;63.41
65707;SHT31;52423;43.512;5.220;2024-03-02T11:14:41;16.02;65.98
65707;SHT31;52423;43.512;5.220;2024-03-02T11:17:10;15.92;66.60
65707;SHT31;52423;43.512;5.220;2024-03-02T11:19:38;15.83;67.47
65707;SHT31;52423;43.512;5.220;2024-03-02T11:22:04;15.75;67.27
65707;SHT31;52423;43.512;5.220;2024-03-02T11:24:31;15.61;67.42
65707;SHT31;52423;43.512;5.220;2024-03-02T11:26:58;15.55;67.39
65707;SHT31;52423;43.512;5.220;2024-03-02T11:32:21;15.53;68.19
65707;SHT31;52423;43.512;5.220;2024-03-02T11:34:50;15.72;67.53
65707;SHT31;52423;43.512;5.220;2024-03-02T11:37:16;15.85;67.25
65707;SHT31;52423;43.512;5.220;2024-03-02T11:39:46;16.00;67.57
65707;SHT31;52423;43.512;5.220;2024-03-02T11:42:13;16.00;67.27
65707;SHT31;52423;43.512;5.220;2024-03-02T11:44:50;15.90;69.14
65707;SHT31;52423;43.512;5.220;2024-03-02T11:47:16;15.94;68.51
65707;SHT31;52423;43.512;5.220;2024-03-02T11:49:43;16.10;66.64
65707;SHT31;52423;43.512;5.220;2024-03-02T11:52:14;16.17;65.19
65707;SHT31;52423;43.512;5.220;2024-03-02T11:54:45;16.25;66.71
65707;SHT31;52423;43.512;5.220;2024-03-02T11:57:20;16.38;66.16
65707;SHT31;52423;43.512;5.220;2024-03-02T11:59:48;16.40;65.01
65707;SHT31;52423;43.512;5.220;2024-03-02T12:02:16;16.51;64.33
65707;SHT31;52423;43.512;5.220;2024-03-02T12:04:45;16.38;62.78
65707;SHT31;52423;43.512;5.220;2024-03-02T12:07:12;16.43;64.02
65707;SHT31;52423;43.512;5.220;2024-03-02T12:09:38;16.55;64.60
65707;SHT31;52423;43.512;5.220;2024-03-02T12:12:08;16.60;63.48
65707;SHT31;52423;43.512;5.220;2024-03-02T12:14:35;16.53;62.94
65707;SHT31;52423;43.512;5.220;2024-03-02T12:17:01;16.37;62.77
65707;SHT31;52423;43.512;5.220;2024-03-02T12:19:28;16.16;64.13
65707;SHT31;52423;43.512;5.220;2024-03-02T12:21:59;15.96;65.69
65707;SHT31;52423;43.512;5.220;2024-03-02T12:24:27;15.86;66.48
65707;SHT31;52423;43.512;5.220;2024-03-02T12:26:52;15.83;66.07
65707;SHT31;52423;43.512;5.220;2024-03-02T12:29:19;15.83;66.24
65707;SHT31;52423;43.512;5.220;2024-03-02T12:31:45;15.81;66.00
65707;SHT31;52423;43.512;5.220;2024-03-02T12:34:12;15.69;65.13
65707;SHT31;52423;43.512;5.220;2024-03-02T12:36:39;15.66;65.15
65707;SHT31;52423;43.512;5.220;2024-03-02T12:39:04;15.61;65.14
65707;SHT31;52423;43.512;5.220;2024-03-02T12:41:30;15.72;64.68
65707;SHT31;52423;43.512;5.220;2024-03-02T12:43:55;15.72;64.53
65707;SHT31;52423;43.512;5.220;2024-03-02T12:46:21;15.66;64.63
65707;SHT31;52423;43.512;5.220;2024-03-02T12:48:46;15.63;65.16
65707;SHT31;52423;43.512;5.220;2024-03-02T12:51:12;15.55;63.85
65707;SHT31;52423;43.512;5.220;2024-03-02T12:53:37;15.49;65.06
65707;SHT31;52423;43.512;5.220;2024-03-02T12:56:03;15.42;66.36
65707;SHT31;52423;43.512;5.220;2024-03-02T12:58:29;15.39;65.40
65707;SHT31;52423;43.512;5.220;2024-03-02T13:01:06;15.30;64.30
65707;SHT31;52423;43.512;5.220;2024-03-02T13:03:35;15.25;63.45
65707;SHT31;52423;43.512;5.220;2024-03-02T13:06:01;15.15;63.08
65707;SHT31;52423;43.512;5.220;2024-03-02T13:08:27;15.12;62.55
65707;SHT31;52423;43.512;5.220;2024-03-02T13:10:52;15.08;64.50
65707;SHT31;52423;43.512;5.220;2024-03-02T13:13:17;15.08;62.90
65707;SHT31;52423;43.512;5.220;2024-03-02T13:15:43;15.10;63.50
65707;SHT31;52423;43.512;5.220;2024-03-02T13:18:11;15.04;63.54
65707;SHT31;52423;43.512;5.220;2024-03-02T13:20:36;15.03;64.00
65707;SHT31;52423;43.512;5.220;2024-03-02T13:23:02;14.98;64.76
65707;SHT31;52423;43.512;5.220;2024-03-02T13:25:28;14.95;65.42
65707;SHT31;52423;43.512;5.220;2024-03-02T13:27:53;14.98;65.20
65707;SHT31;52423;43.512;5.220;2024-03-02T13:30:18;15.01;63.46
65707;SHT31;52423;43.512;5.220;2024-03-02T13:32:44;15.00;62.15
65707;SHT31;52423;43.512;5.220;2024-03-02T13:35:10;14.98;63.00
65707;SHT31;52423;43.512;5.220;2024-03-02T13:37:37;14.94;62.02
65707;SHT31;52423;43.512;5.220;2024-03-02T13:40:03;15.00;63.32
65707;SHT31;52423;43.512;5.220;2024-03-02T13:42:30;15.01;62.46
65707;SHT31;52423;43.512;5.220;2024-03-02T13:44:56;15.03;61.90
65707;SHT31;52423;43.512;5.220;2024-03-02T13:47:21;15.03;61.68
65707;SHT31;52423;43.512;5.220;2024-03-02T13:49:47;15.01;61.67
65707;SHT31;52423;43.512;5.220;2024-03-02T13:52:14;14.95;61.80
65707;SHT31;52423;43.512;5.220;2024-03-02T13:54:40;14.98;60.00
65707;SHT31;52423;43.512;5.220;2024-03-02T13:57:09;14.97;60.01
65707;SHT31;52423;43.512;5.220;2024-03-02T13:59:35;14.95;60.58
65707;SHT31;52423;43.512;5.220;2024-03-02T14:02:01;14.95;60.77
65707;SHT31;52423;43.512;5.220;2024-03-02T14:04:26;14.91;61.46
65707;SHT31;52423;43.512;5.220;2024-03-02T14:06:52;14.91;61.00
65707;SHT31;52423;43.512;5.220;2024-03-02T14:09:18;14.90;60.95
65707;SHT31;52423;43.512;5.220;2024-03-02T14:11:45;14.93;62.30
65707;SHT31;52423;43.512;5.220;2024-03-02T14:14:11;14.94;62.67
65707;SHT31;52423;43.512;5.220;2024-03-02T14:16:36;14.91;63.70
65707;SHT31;52423;43.512;5.220;2024-03-02T14:19:02;14.94;64.89
65707;SHT31;52423;43.512;5.220;2024-03-02T14:21:29;14.94;66.59
65707;SHT31;52423;43.512;5.220;2024-03-02T14:23:54;14.88;67.75
65707;SHT31;52423;43.512;5.220;2024-03-02T14:26:20;14.81;67.90
65707;SHT31;52423;43.512;5.220;2024-03-02T14:28:46;14.80;67.58
65707;SHT31;52423;43.512;5.220;2024-03-02T14:31:11;14.74;68.56
65707;SHT31;52423;43.512;5.220;2024-03-02T14:33:37;14.73;68.05
65707;SHT31;52423;43.512;5.220;2024-03-02T14:36:02;14.73;67.99
65707;SHT31;52423;43.512;5.220;2024-03-02T14:38:29;14.72;69.54
65707;SHT31;52423;43.512;5.220;2024-03-02T14:40:55;14.64;70.08
65707;SHT31;52423;43.512;5.220;2024-03-02T14:43:20;14.63;69.87
65707;SHT31;52423;43.512;5.220;2024-03-02T14:45:46;14.63;69.26
65707;SHT31;52423;43.512;5.220;2024-03-02T14:48:11;14.57;70.14
65707;SHT31;52423;43.512;5.220;2024-03-02T14:50:37;14.55;70.70
65707;SHT31;52423;43.512;5.220;2024-03-02T14:53:02;14.55;70.68
65707;SHT31;52423;43.512;5.220;2024-03-02T14:55:28;14.47;70.99
65707;SHT31;52423;43.512;5.220;2024-03-02T14:57:53;14.44;71.49
65707;SHT31;52423;43.512;5.220;2024-03-02T15:00:19;14.40;71.73
65707;SHT31;52423;43.512;5.220;2024-03-02T15:02:44;14.39;71.62
65707;SHT31;52423;43.512;5.220;2024-03-02T15:05:10;14.37;72.06
65707;SHT31;52423;43.512;5.220;2024-03-02T15:07:35;14.37;71.49
65707;SHT31;52423;43.512;5.220;2024-03-02T15:10:01;14.34;71.67
65707;SHT31;52423;43.512;5.220;2024-03-02T15:12:26;14.34;71.81
65707;SHT31;52423;43.512;5.220;2024-03-02T15:14:52;14.33;72.36
65707;SHT31;52423;43.512;5.220;2024-03-02T15:17:17;14.26;72.33
65707;SHT31;52423;43.512;5.220;2024-03-02T15:19:44;14.28;72.23
65707;SHT31;52423;43.512;5.220;2024-03-02T15:22:10;14.25;72.99
65707;SHT31;52423;43.512;5.220;2024-03-02T15:24:35;14.21;73.09
65707;SHT31;52423;43.512;5.220;2024-03-02T15:27:01;14.18;73.51
65707;SHT31;52423;43.512;5.220;2024-03-02T15:29:34;14.16;73.42
65707;SHT31;52423;43.512;5.220;2024-03-02T15:31:59;14.11;73.83
65707;SHT31;52423;43.512;5.220;2024-03-02T15:34:25;14.12;73.78
65707;SHT31;52423;43.512;5.220;2024-03-02T15:36:50;14.12;74.10
65707;SHT31;52423;43.512;5.220;2024-03-02T15:39:16;14.08;74.44
65707;SHT31;52423;43.512;5.220;2024-03-02T15:41:44;14.09;73.97